createdAt,value
2018-12-29T00:01:36.115Z,53.75
2018-12-29T00:04:05.891Z,58.10
2018-12-29T00:06:36.532Z,54.47
2018-12-29T00:09:06.905Z,52.50
2018-12-29T00:11:36.398Z,52.48
2018-12-29T00:14:06.115Z,55.97
2018-12-29T00:16:35.616Z,59.60
2018-12-29T00:19:05.206Z,74.33
2018-12-29T00:21:34.714Z,57.80
2018-12-29T00:24:04.318Z,50.40
2018-12-29T00:26:34.392Z,58.20
2018-12-29T00:29:03.906Z,54.43
2018-12-29T00:31:33.579Z,53.98
2018-12-29T00:34:03.872Z,50.57
2018-12-29T00:36:33.650Z,49.83
2018-12-29T00:39:03.657Z,51.80
2018-12-29T00:41:33.528Z,58.00
2018-12-29T00:44:03.023Z,47.13
2018-12-29T00:46:32.606Z,52.50
2018-12-29T00:49:02.264Z,47.10
2018-12-29T00:51:32.069Z,49.33
2018-12-29T00:54:02.567Z,46.17
2018-12-29T00:56:32.350Z,42.70
2018-12-29T00:59:02.340Z,54.17
2018-12-29T01:01:32.103Z,48.53
2018-12-29T01:04:02.845Z,41.10
2018-12-29T01:06:32.354Z,47.33
2018-12-29T01:09:02.766Z,47.40
2018-12-29T01:11:32.301Z,45.07
2018-12-29T01:14:01.772Z,47.63
2018-12-29T01:16:32.000Z,40.73
2018-12-29T01:19:01.912Z,42.25
2018-12-29T01:21:31.778Z,43.52
2018-12-29T01:24:02.218Z,49.08
2018-12-29T01:26:32.072Z,48.37
2018-12-29T01:29:02.186Z,47.20
2018-12-29T01:31:31.886Z,48.27
2018-12-29T01:34:02.200Z,41.68
2018-12-29T01:36:33.694Z,41.90
2018-12-29T01:39:04.110Z,46.97
2018-12-29T01:41:34.006Z,43.40
2018-12-29T01:44:03.527Z,41.90
2018-12-29T01:46:33.212Z,42.60
2018-12-29T01:49:02.690Z,48.97
2018-12-29T01:51:32.478Z,47.27
2018-12-29T01:54:02.302Z,43.93
2018-12-29T01:56:31.965Z,49.67
2018-12-29T01:59:02.057Z,44.35
2018-12-29T02:01:32.360Z,49.10
2018-12-29T02:04:02.557Z,45.43
2018-12-29T02:06:32.435Z,40.80
2018-12-29T02:09:01.951Z,45.43
2018-12-29T02:11:32.566Z,39.47
2018-12-29T02:14:02.050Z,42.60
2018-12-29T02:16:32.418Z,41.37
2018-12-29T02:19:01.916Z,39.30
2018-12-29T02:21:32.461Z,42.03
2018-12-29T02:24:02.257Z,48.97
2018-12-29T02:26:31.980Z,50.55
2018-12-29T02:29:02.504Z,41.48
2018-12-29T02:31:32.309Z,37.27
2018-12-29T02:34:02.636Z,37.93
2018-12-29T02:39:09.261Z,47.20
2018-12-29T02:41:39.644Z,40.35
2018-12-29T02:44:09.844Z,39.73
2018-12-29T02:46:39.584Z,38.33
2018-12-29T02:49:09.172Z,43.48
2018-12-29T02:51:38.670Z,45.83
2018-12-29T02:54:09.072Z,43.83
2018-12-29T02:56:38.861Z,43.57
2018-12-29T02:59:08.371Z,46.23
2018-12-29T03:01:38.460Z,42.77
2018-12-29T03:04:08.015Z,46.18
2018-12-29T03:06:37.611Z,46.23
2018-12-29T03:09:07.193Z,46.90
2018-12-29T03:11:37.262Z,40.33
2018-12-29T03:14:06.781Z,55.47
2018-12-29T03:16:36.577Z,46.10
2018-12-29T03:19:06.147Z,47.93
2018-12-29T03:21:35.685Z,53.80
2018-12-29T03:24:05.178Z,50.80
2018-12-29T03:26:35.207Z,48.50
2018-12-29T03:29:04.989Z,52.23
2018-12-29T03:31:34.766Z,54.07
2018-12-29T03:34:04.363Z,52.87
2018-12-29T03:36:34.432Z,49.03
2018-12-29T03:39:06.204Z,52.07
2018-12-29T03:41:36.183Z,53.60
2018-12-29T03:44:06.224Z,54.60
2018-12-29T03:46:36.966Z,52.20
2018-12-29T03:49:06.757Z,48.78
2018-12-29T03:51:36.559Z,58.77
2018-12-29T03:54:06.140Z,50.78
2018-12-29T03:56:36.208Z,50.70
2018-12-29T03:59:05.688Z,55.10
2018-12-29T04:01:35.361Z,55.13
2018-12-29T04:04:04.865Z,54.50
2018-12-29T04:06:34.714Z,58.90
2018-12-29T04:09:40.458Z,54.33
2018-12-29T04:12:13.559Z,57.43
2018-12-29T04:14:44.655Z,57.90
2018-12-29T04:17:14.834Z,57.08
2018-12-29T04:19:44.380Z,49.83
2018-12-29T04:22:14.596Z,50.35
2018-12-29T04:24:44.380Z,50.23
2018-12-29T04:27:14.011Z,48.67
2018-12-29T04:29:45.236Z,52.83
2018-12-29T04:32:15.294Z,50.33
2018-12-29T04:34:45.619Z,54.45
2018-12-29T04:37:15.135Z,52.83
2018-12-29T04:39:45.181Z,49.10
2018-12-29T04:42:15.061Z,57.30
2018-12-29T04:44:44.898Z,56.63
2018-12-29T04:47:14.824Z,47.40
2018-12-29T04:49:44.318Z,49.60
2018-12-29T04:52:14.763Z,52.40
2018-12-29T04:54:44.262Z,51.03
2018-12-29T04:57:14.018Z,51.80
2018-12-29T04:59:43.524Z,53.63
2018-12-29T05:02:13.337Z,53.42
2018-12-29T05:04:44.080Z,44.98
2018-12-29T05:07:13.875Z,48.23
2018-12-29T05:09:43.405Z,54.20
2018-12-29T05:12:12.920Z,48.97
2018-12-29T05:14:43.160Z,56.63
2018-12-29T05:17:12.950Z,59.70
2018-12-29T05:19:42.453Z,48.13
2018-12-29T05:22:12.208Z,49.53
2018-12-29T05:24:42.008Z,53.27
2018-12-29T05:27:11.768Z,50.70
2018-12-29T05:29:41.866Z,49.17
2018-12-29T05:32:12.159Z,56.07
2018-12-29T05:34:41.970Z,46.58
2018-12-29T05:37:12.893Z,55.60
2018-12-29T05:39:42.696Z,51.40
2018-12-29T05:42:12.763Z,60.80
2018-12-29T05:44:42.555Z,50.57
2018-12-29T05:47:12.653Z,55.57
2018-12-29T05:49:42.782Z,55.50
2018-12-29T05:52:12.867Z,52.17
2018-12-29T05:54:42.373Z,50.20
2018-12-29T05:57:12.172Z,59.20
2018-12-29T05:59:42.153Z,58.08
2018-12-29T06:02:12.255Z,63.30
2018-12-29T06:04:42.319Z,55.50
2018-12-29T06:07:12.373Z,55.85
2018-12-29T06:09:42.526Z,59.57
2018-12-29T06:12:12.304Z,55.43
2018-12-29T06:14:41.823Z,54.85
2018-12-29T06:17:11.792Z,54.77
2018-12-29T06:19:41.566Z,51.87
2018-12-29T06:22:11.337Z,57.27
2018-12-29T06:24:40.827Z,55.15
2018-12-29T06:27:10.571Z,59.87
2018-12-29T06:29:40.460Z,53.58
2018-12-29T06:32:10.326Z,53.57
2018-12-29T06:34:40.705Z,58.73
2018-12-29T06:37:10.264Z,60.80
2018-12-29T06:39:40.052Z,57.27
2018-12-29T06:42:09.565Z,56.53
2018-12-29T06:44:39.585Z,56.63
2018-12-29T06:47:09.549Z,51.92
2018-12-29T06:49:39.187Z,52.57
2018-12-29T06:52:09.235Z,50.77
2018-12-29T06:54:39.021Z,53.13
2018-12-29T06:57:10.151Z,47.63
2018-12-29T06:59:40.076Z,53.20
2018-12-29T07:02:10.070Z,52.03
2018-12-29T07:04:39.859Z,51.25
2018-12-29T07:07:09.351Z,46.23
2018-12-29T07:09:39.113Z,56.57
2018-12-29T07:12:08.683Z,51.77
2018-12-29T07:14:38.736Z,49.20
2018-12-29T07:17:08.535Z,47.90
2018-12-29T07:19:38.556Z,51.15
2018-12-29T07:22:08.095Z,50.03
2018-12-29T07:24:38.150Z,47.53
2018-12-29T07:27:08.225Z,45.10
2018-12-29T07:29:38.523Z,50.67
2018-12-29T07:32:08.396Z,49.93
2018-12-29T07:34:38.445Z,48.63
2018-12-29T07:37:08.033Z,52.00
2018-12-29T07:39:37.776Z,47.10
2018-12-29T07:42:07.805Z,46.73
2018-12-29T07:44:37.886Z,48.70
2018-12-29T07:47:07.691Z,43.80
2018-12-29T07:49:38.061Z,43.87
2018-12-29T07:52:08.218Z,46.17
2018-12-29T07:54:37.950Z,40.17
2018-12-29T07:57:07.493Z,42.90
2018-12-29T07:59:37.669Z,40.40
2018-12-29T08:02:07.750Z,46.90
2018-12-29T08:04:37.817Z,44.17
2018-12-29T08:07:07.612Z,45.73
2018-12-29T08:09:38.139Z,48.77
2018-12-29T08:12:07.640Z,47.08
2018-12-29T08:14:37.405Z,50.27
2018-12-29T08:17:07.019Z,39.53
2018-12-29T08:19:36.865Z,41.97
2018-12-29T08:22:06.655Z,45.57
2018-12-29T08:24:36.158Z,42.53
2018-12-29T08:27:06.412Z,42.53
2018-12-29T08:29:35.903Z,43.20
2018-12-29T08:32:05.763Z,45.43
2018-12-29T08:34:36.499Z,46.23
2018-12-29T08:37:06.396Z,40.07
2018-12-29T08:39:36.220Z,42.80
2018-12-29T08:42:05.979Z,38.63
2018-12-29T08:44:36.542Z,48.87
2018-12-29T08:47:06.039Z,46.73
2018-12-29T08:49:35.522Z,44.93
2018-12-29T08:52:05.255Z,43.90
2018-12-29T08:54:35.019Z,41.90
2018-12-29T08:57:04.514Z,43.10
2018-12-29T08:59:34.005Z,39.67
2018-12-29T09:02:03.822Z,38.90
2018-12-29T09:04:33.391Z,38.92
2018-12-29T09:07:03.444Z,38.90
2018-12-29T09:09:33.462Z,39.23
2018-12-29T09:12:03.532Z,44.75
2018-12-29T09:14:33.761Z,39.57
2018-12-29T09:17:03.715Z,40.25
2018-12-29T09:19:33.744Z,40.78
2018-12-29T09:22:03.461Z,39.07
2018-12-29T09:24:33.995Z,37.30
2018-12-29T09:27:03.866Z,40.43
2018-12-29T09:29:33.556Z,35.08
2018-12-29T09:32:03.813Z,35.13
2018-12-29T09:34:34.632Z,36.10
2018-12-29T09:37:04.408Z,36.57
2018-12-29T09:39:34.213Z,33.83
2018-12-29T09:42:03.766Z,33.20
2018-12-29T09:44:34.227Z,32.75
2018-12-29T09:47:03.811Z,31.20
2018-12-29T09:49:34.380Z,31.10
2018-12-29T09:52:04.459Z,36.77
2018-12-29T09:54:33.953Z,33.13
2018-12-29T09:57:03.935Z,25.57
2018-12-29T09:59:34.582Z,29.10
2018-12-29T10:02:04.345Z,25.77
2018-12-29T10:04:34.788Z,25.88
2018-12-29T10:07:04.892Z,26.10
2018-12-29T10:09:34.425Z,25.50
2018-12-29T10:12:04.530Z,27.30
2018-12-29T10:14:34.632Z,24.15
2018-12-29T10:17:04.283Z,24.03
2018-12-29T10:19:34.770Z,24.98
2018-12-29T10:22:05.774Z,25.12
2018-12-29T10:24:35.267Z,24.90
2018-12-29T10:27:04.950Z,22.40
2018-12-29T10:29:35.100Z,22.13
2018-12-29T10:32:05.001Z,19.63
2018-12-29T10:34:34.582Z,25.70
2018-12-29T10:37:04.952Z,21.20
2018-12-29T10:39:34.686Z,22.42
2018-12-29T10:42:04.997Z,18.87
2018-12-29T10:44:34.792Z,21.35
2018-12-29T10:47:05.038Z,21.33
2018-12-29T10:49:35.106Z,19.40
2018-12-29T10:52:05.056Z,22.00
2018-12-29T10:54:35.442Z,19.52
2018-12-29T10:57:05.632Z,19.10
2018-12-29T10:59:35.658Z,21.67
2018-12-29T11:02:05.166Z,26.83
2018-12-29T11:04:35.909Z,22.17
2018-12-29T11:07:05.444Z,22.03
2018-12-29T11:09:35.161Z,19.37
2018-12-29T11:12:05.359Z,22.47
2018-12-29T11:14:35.295Z,18.47
2018-12-29T11:17:05.314Z,20.05
2018-12-29T11:19:35.649Z,20.97
2018-12-29T11:22:06.100Z,16.60
2018-12-29T11:24:37.341Z,20.80
2018-12-29T11:27:08.078Z,23.00
2018-12-29T11:29:37.928Z,18.37
2018-12-29T11:32:07.439Z,19.48
2018-12-29T11:34:37.570Z,22.73
2018-12-29T11:37:07.071Z,18.80
2018-12-29T11:39:36.674Z,18.10
2018-12-29T11:42:06.191Z,20.00
2018-12-29T11:44:35.970Z,18.10
2018-12-29T11:47:05.902Z,17.83
2018-12-29T11:49:36.000Z,18.00
2018-12-29T11:52:06.153Z,19.52
2018-12-29T11:54:35.983Z,17.17
2018-12-29T11:57:06.259Z,17.80
2018-12-29T11:59:36.685Z,16.77
2018-12-29T12:02:06.548Z,20.20
2018-12-29T12:04:36.728Z,16.43
2018-12-29T12:07:06.947Z,18.97
2018-12-29T12:09:36.480Z,18.87
2018-12-29T12:12:06.241Z,17.30
2018-12-29T12:14:36.301Z,17.67
2018-12-29T12:17:06.980Z,19.15
2018-12-29T12:19:37.024Z,19.93
2018-12-29T12:22:06.823Z,19.60
2018-12-29T12:24:37.277Z,18.73
2018-12-29T12:27:07.242Z,17.87
2018-12-29T12:29:37.322Z,20.00
2018-12-29T12:32:06.829Z,19.93
2018-12-29T12:34:37.236Z,20.23
2018-12-29T12:37:06.758Z,18.57
2018-12-29T12:39:37.236Z,24.82
2018-12-29T12:42:07.109Z,20.60
2018-12-29T12:44:37.016Z,20.65
2018-12-29T12:47:07.899Z,21.45
2018-12-29T12:49:38.031Z,21.50
2018-12-29T12:52:07.820Z,20.03
2018-12-29T12:54:37.657Z,22.23
2018-12-29T12:57:07.507Z,22.27
2018-12-29T12:59:37.637Z,26.13
2018-12-29T13:02:10.457Z,20.77
2018-12-29T13:04:40.264Z,20.63
2018-12-29T13:07:10.411Z,22.50
2018-12-29T13:09:40.330Z,23.63
2018-12-29T13:12:09.861Z,22.60
2018-12-29T13:14:40.649Z,24.65
2018-12-29T13:17:10.419Z,21.57
2018-12-29T13:19:40.008Z,26.87
2018-12-29T13:22:09.584Z,23.57
2018-12-29T13:24:39.220Z,29.57
2018-12-29T13:27:08.964Z,22.20
2018-12-29T13:29:38.842Z,26.63
2018-12-29T13:32:08.455Z,22.40
2018-12-29T13:34:38.193Z,25.10
2018-12-29T13:37:09.302Z,25.93
2018-12-29T13:39:39.122Z,27.63
2018-12-29T13:42:08.599Z,25.43
2018-12-29T13:44:38.886Z,23.97
2018-12-29T13:47:08.360Z,25.33
2018-12-29T13:49:38.122Z,27.22
2018-12-29T13:52:08.152Z,27.27
2018-12-29T13:54:38.175Z,28.47
2018-12-29T13:57:09.496Z,29.07
2018-12-29T13:59:39.890Z,27.97
2018-12-29T14:02:09.664Z,28.07
2018-12-29T14:04:39.475Z,29.53
2018-12-29T14:07:10.941Z,31.70
2018-12-29T14:09:40.785Z,29.63
2018-12-29T14:12:10.825Z,28.30
2018-12-29T14:14:40.645Z,28.42
2018-12-29T14:17:11.085Z,29.87
2018-12-29T14:19:40.881Z,28.40
2018-12-29T14:22:10.704Z,29.47
2018-12-29T14:24:40.214Z,30.13
2018-12-29T14:27:11.835Z,33.13
2018-12-29T14:29:44.817Z,34.17
2018-12-29T14:32:14.399Z,32.67
2018-12-29T14:34:44.200Z,36.00
2018-12-29T14:37:13.973Z,32.65
2018-12-29T14:39:44.061Z,33.63
2018-12-29T14:42:13.611Z,32.30
2018-12-29T14:44:43.396Z,30.93
2018-12-29T14:47:13.224Z,31.70
2018-12-29T14:49:44.117Z,34.03
2018-12-29T14:52:14.136Z,31.40
2018-12-29T14:54:43.729Z,31.25
2018-12-29T14:57:13.928Z,35.13
2018-12-29T14:59:43.486Z,34.87
2018-12-29T15:02:13.437Z,35.37
2018-12-29T15:04:42.930Z,36.23
2018-12-29T15:07:12.752Z,35.53
2018-12-29T15:09:43.034Z,32.47
2018-12-29T15:12:12.845Z,33.60
2018-12-29T15:14:42.324Z,30.30
2018-12-29T15:17:11.914Z,27.47
2018-12-29T15:19:41.421Z,29.77
2018-12-29T15:22:11.197Z,30.83
2018-12-29T15:24:41.047Z,28.53
2018-12-29T15:27:10.578Z,25.27
2018-12-29T15:29:40.348Z,26.17
2018-12-29T15:32:12.483Z,33.63
2018-12-29T15:34:42.005Z,25.87
2018-12-29T15:37:11.625Z,24.87
2018-12-29T15:39:44.970Z,23.03
2018-12-29T15:42:15.313Z,23.85
2018-12-29T15:44:45.404Z,20.83
2018-12-29T15:47:14.867Z,22.82
2018-12-29T15:49:44.847Z,22.40
2018-12-29T15:52:14.330Z,18.47
2018-12-29T15:54:44.197Z,17.87
2018-12-29T15:57:13.979Z,17.07
2018-12-29T15:59:43.843Z,19.07
2018-12-29T16:02:13.656Z,20.67
2018-12-29T16:04:43.226Z,20.70
2018-12-29T16:07:12.752Z,20.23
2018-12-29T16:09:42.290Z,25.00
2018-12-29T16:12:12.045Z,22.13
2018-12-29T16:14:41.858Z,20.53
2018-12-29T16:17:11.347Z,19.53
2018-12-29T16:19:41.166Z,23.00
2018-12-29T16:22:10.991Z,23.03
2018-12-29T16:24:41.074Z,22.93
2018-12-29T16:27:12.087Z,24.63
2018-12-29T16:29:41.648Z,25.73
2018-12-29T16:32:11.422Z,26.80
2018-12-29T16:34:42.518Z,24.07
2018-12-29T16:37:12.011Z,22.20
2018-12-29T16:39:41.831Z,25.00
2018-12-29T16:42:12.080Z,24.83
2018-12-29T16:44:41.623Z,28.07
2018-12-29T16:47:11.350Z,25.23
2018-12-29T16:49:41.190Z,25.80
2018-12-29T16:52:11.898Z,24.63
2018-12-29T16:54:42.006Z,22.90
2018-12-29T16:57:11.608Z,25.47
2018-12-29T16:59:41.741Z,26.10
2018-12-29T17:02:11.638Z,25.30
2018-12-29T17:04:41.711Z,31.83
2018-12-29T17:07:11.414Z,35.52
2018-12-29T17:09:42.343Z,37.00
2018-12-29T17:12:12.403Z,41.67
2018-12-29T17:14:42.246Z,35.83
2018-12-29T17:17:13.041Z,34.80
2018-12-29T17:19:43.792Z,32.20
2018-12-29T17:22:13.741Z,42.10
2018-12-29T17:24:43.580Z,38.20
2018-12-29T17:27:13.093Z,33.53
2018-12-29T17:29:42.931Z,35.53
2018-12-29T17:32:12.702Z,31.03
2018-12-29T17:34:42.517Z,31.53
2018-12-29T17:37:12.020Z,23.87
2018-12-29T17:39:42.728Z,25.68
2018-12-29T17:42:12.199Z,25.47
2018-12-29T17:44:42.418Z,24.63
2018-12-29T17:47:12.643Z,22.90
2018-12-29T17:49:42.216Z,20.80
2018-12-29T17:52:12.442Z,21.23
2018-12-29T17:54:43.433Z,19.25
2018-12-29T17:57:12.949Z,21.83
2018-12-29T17:59:42.495Z,21.53
2018-12-29T18:02:13.348Z,18.97
2018-12-29T18:04:42.901Z,18.67
2018-12-29T18:07:12.509Z,19.57
2018-12-29T18:09:42.797Z,17.47
2018-12-29T18:12:12.813Z,17.63
2018-12-29T18:14:42.931Z,19.10
2018-12-29T18:17:13.060Z,19.93
2018-12-29T18:19:42.962Z,16.07
2018-12-29T18:22:12.735Z,19.23
2018-12-29T18:24:42.733Z,19.35
2018-12-29T18:27:13.016Z,19.13
2018-12-29T18:29:42.996Z,14.53
2018-12-29T18:32:12.857Z,17.70
2018-12-29T18:34:43.174Z,15.72
2018-12-29T18:37:13.732Z,14.83
2018-12-29T18:39:43.603Z,14.73
2018-12-29T18:42:13.140Z,11.37
2018-12-29T18:44:43.147Z,15.93
2018-12-29T18:47:13.466Z,12.37
2018-12-29T18:49:43.266Z,14.87
2018-12-29T18:52:13.881Z,15.97
2018-12-29T18:54:43.924Z,15.83
2018-12-29T18:57:13.479Z,12.63
2018-12-29T18:59:43.746Z,16.87
2018-12-29T19:02:13.424Z,15.13
2018-12-29T19:04:43.374Z,13.67
2018-12-29T19:07:13.384Z,15.23
2018-12-29T19:09:43.413Z,13.48
2018-12-29T19:12:13.510Z,11.75
2018-12-29T19:14:43.521Z,14.28
2018-12-29T19:17:14.299Z,15.53
2018-12-29T19:19:46.492Z,13.80
2018-12-29T19:22:17.299Z,13.37
2018-12-29T19:24:47.062Z,11.37
2018-12-29T19:27:16.590Z,11.25
2018-12-29T19:29:46.726Z,10.97
2018-12-29T19:32:16.944Z,12.00
2018-12-29T19:34:47.104Z,11.80
2018-12-29T19:37:17.027Z,8.90
2018-12-29T19:39:46.515Z,9.90
2018-12-29T19:42:16.669Z,9.73
2018-12-29T19:44:46.495Z,8.27
2018-12-29T19:47:16.655Z,7.13
2018-12-29T19:49:53.508Z,6.07
2018-12-29T19:52:17.514Z,6.83
2018-12-29T19:54:48.748Z,8.88
2018-12-29T19:57:18.864Z,9.38
2018-12-29T19:59:49.467Z,7.83
2018-12-29T20:02:19.617Z,12.75
2018-12-29T20:04:49.713Z,9.33
2018-12-29T20:07:19.840Z,7.07
2018-12-29T20:09:49.717Z,8.80
2018-12-29T20:12:19.543Z,9.05
2018-12-29T20:14:49.033Z,6.50
2018-12-29T20:17:18.973Z,6.07
2018-12-29T20:19:48.770Z,8.13
2018-12-29T20:22:18.584Z,6.90
2018-12-29T20:24:48.321Z,7.43
2018-12-29T20:27:18.163Z,10.37
2018-12-29T20:29:48.028Z,9.33
2018-12-29T20:32:17.747Z,9.40
2018-12-29T20:34:47.322Z,8.37
2018-12-29T20:37:16.859Z,10.50
2018-12-29T20:39:46.933Z,9.90
2018-12-29T20:42:16.751Z,12.97
2018-12-29T20:44:46.615Z,11.93
2018-12-29T20:47:17.054Z,13.23
2018-12-29T20:49:47.317Z,12.70
2018-12-29T20:52:17.098Z,12.17
2018-12-29T20:54:46.656Z,15.07
2018-12-29T20:57:16.635Z,15.70
2018-12-29T20:59:46.428Z,16.50
2018-12-29T21:02:16.283Z,20.93
2018-12-29T21:04:46.129Z,20.57
2018-12-29T21:07:16.002Z,22.70
2018-12-29T21:09:46.086Z,22.90
2018-12-29T21:12:16.031Z,24.13
2018-12-29T21:14:45.642Z,22.07
2018-12-29T21:17:15.898Z,23.20
2018-12-29T21:19:45.956Z,24.23
2018-12-29T21:22:15.937Z,26.13
2018-12-29T21:24:46.010Z,23.87
2018-12-29T21:27:15.892Z,23.90
2018-12-29T21:29:45.866Z,24.02
2018-12-29T21:32:15.885Z,22.02
2018-12-29T21:34:45.870Z,19.40
2018-12-29T21:37:16.096Z,19.67
2018-12-29T21:39:45.954Z,16.67
2018-12-29T21:42:16.041Z,16.27
2018-12-29T21:44:46.603Z,16.02
2018-12-29T21:47:16.938Z,10.03
2018-12-29T21:49:46.705Z,9.73
2018-12-29T21:52:16.280Z,11.97
2018-12-29T21:54:46.215Z,14.70
2018-12-29T21:57:16.638Z,10.40
2018-12-29T21:59:46.417Z,9.77
2018-12-29T22:02:16.333Z,12.43
2018-12-29T22:04:46.684Z,17.77
2018-12-29T22:07:16.689Z,9.73
2018-12-29T22:09:46.418Z,12.07
2018-12-29T22:12:16.510Z,9.53
2018-12-29T22:14:49.241Z,11.25
2018-12-29T22:17:19.143Z,7.43
2018-12-29T22:19:48.965Z,5.03
2018-12-29T22:22:18.745Z,7.00
2018-12-29T22:24:49.481Z,6.47
2018-12-29T22:27:20.687Z,6.83
2018-12-29T22:29:50.154Z,8.83
2018-12-29T22:32:19.630Z,5.50
2018-12-29T22:34:49.170Z,4.60
2018-12-29T22:37:19.203Z,6.90
2018-12-29T22:39:49.315Z,6.10
2018-12-29T22:42:19.104Z,5.30
2018-12-29T22:44:48.887Z,6.40
2018-12-29T22:47:18.451Z,11.43
2018-12-29T22:49:47.930Z,6.42
2018-12-29T22:52:17.569Z,9.33
2018-12-29T22:54:48.090Z,3.70
2018-12-29T22:57:18.213Z,4.20
2018-12-29T22:59:47.696Z,7.50
2018-12-29T23:02:17.606Z,2.87
2018-12-29T23:04:47.685Z,2.00
2018-12-29T23:07:18.574Z,2.22
2018-12-29T23:09:48.506Z,0.93
2018-12-29T23:12:18.118Z,5.03
2018-12-29T23:14:47.849Z,1.15
2018-12-29T23:17:18.357Z,3.35
2018-12-29T23:19:48.055Z,3.83
2018-12-29T23:22:18.210Z,3.30
2018-12-29T23:24:49.241Z,3.30
2018-12-29T23:27:20.929Z,3.57
2018-12-29T23:29:50.713Z,2.93
2018-12-29T23:32:20.221Z,2.83
2018-12-29T23:34:50.671Z,5.50
2018-12-29T23:37:20.409Z,5.90
2018-12-29T23:39:50.558Z,5.47
2018-12-29T23:42:20.373Z,4.67
2018-12-29T23:44:50.847Z,3.33
2018-12-29T23:47:20.710Z,6.47
2018-12-29T23:49:50.580Z,1.17
2018-12-29T23:52:20.576Z,6.27
2018-12-29T23:54:50.072Z,1.20
2018-12-29T23:57:20.054Z,2.13
2018-12-29T23:59:49.870Z,8.70
